Weather History for Tehachapi, CA

Change the Weather History Date:

Tuesday, April 1, 2014

  Actual Average Record
Temperature  
Mean Temperature 38 °F -  
Max Temperature 44 °F 57 °F 55 °F (2013)
Min Temperature 32 °F 35 °F 32 °F (2012)
Degree Days  
Heating Degree Days 27    
Moisture  
Dew Point 32 °F    
Average Humidity 82    
Maximum Humidity 100    
Minimum Humidity 46    
Precipitation  
Precipitation 1.41 in - - ()
Sea Level Pressure  
Sea Level Pressure 29.91 in    
Wind  
Wind Speed 12 mph (NW)    
Max Wind Speed 21 mph    
Max Gust Speed 28 mph    
Visibility 7 miles    
Events Rain , Snow    
Averages and records for this station are not official NWS values.
T = Trace of Precipitation, MM = Missing Value Source: NWS Daily Summary

Daily Weather History Graph

Daily Weather History Graph

Search for Another Location

Airport:

Trip Planner

Search our weather history database for the weather conditions in past years. The results will help you decide how hot, cold, wet, or windy it might be!

Date:

Astronomy

Apr. 01, 2014 Rise Set
Actual Time 6:40 AM PDT 7:15 PM PDT
Civil Twilight 6:14 AM PDT 7:40 PM PDT
Nautical Twilight 5:44 AM PDT 8:10 PM PDT
Astronomical Twilight 5:14 AM PDT 8:41 PM PDT
Moon 7:50 AM PDT (4/1) 9:37 PM PDT (4/1)
Length of Visible Light 13h 25m
Length of Day
12h 34m
Waxing Crescent, 5% of the Moon is Illuminated
Apr 1
Waxing Crescent
Apr 7
First Quarter
Apr 15
Full
Apr 22
Last Quarter
Apr 28
New

Hourly Weather History & Observations

Time (PDT) Temp. Windchill Dew Point Humidity Pressure Visibility Wind Dir Wind Speed Gust Speed Precip Events Conditions
12:15 AM 35.6 °F 27.1 °F 35.6 °F 100% 29.92 in 1.8 mi WNW 12.7 mph 21.9 mph 0.07 in Rain Heavy Rain
12:35 AM 32.0 °F 24.2 °F 32.0 °F 100% 29.92 in 1.8 mi WNW 9.2 mph - 0.20 in Rain Light Rain
12:55 AM 32.0 °F 24.2 °F 32.0 °F 100% 29.92 in 1.2 mi WNW 9.2 mph - 0.35 in Snow Light Snow
1:15 AM 32.0 °F 20.8 °F 32.0 °F 100% 29.91 in 1.0 mi NW 17.3 mph 21.9 mph 0.18 in Snow Light Snow
1:35 AM 32.0 °F 21.6 °F 32.0 °F 100% 29.92 in 1.0 mi NW 15.0 mph 24.2 mph 0.44 in Snow Light Snow
1:55 AM 32.0 °F 22.1 °F 32.0 °F 100% 29.92 in 1.5 mi WNW 13.8 mph - 0.59 in Snow Light Snow
2:15 AM 32.0 °F 20.8 °F 32.0 °F 100% 29.92 in 4.0 mi WNW 17.3 mph 23.0 mph 0.01 in Snow Light Snow
2:35 AM 32.0 °F 20.5 °F 32.0 °F 100% 29.91 in 3.0 mi NW 18.4 mph 27.6 mph 0.02 in Rain Light Rain
2:55 AM 33.8 °F 22.2 °F 33.8 °F 100% 29.91 in 3.0 mi NW 20.7 mph 25.3 mph 0.02 in Rain Light Rain
3:15 AM 33.8 °F 23.2 °F 33.8 °F 100% 29.91 in 2.5 mi NW 17.3 mph 24.2 mph N/A Rain Light Rain
3:35 AM 33.8 °F 22.8 °F 33.8 °F 100% 29.91 in 2.5 mi NW 18.4 mph 24.2 mph 0.01 in Rain Light Rain
3:55 AM 33.8 °F 23.2 °F 33.8 °F 100% 29.91 in 3.0 mi NW 17.3 mph 20.7 mph 0.03 in Rain Light Rain
4:15 AM 33.8 °F 25.8 °F 33.8 °F 100% 29.90 in 5.0 mi NW 10.4 mph - N/A   Overcast
4:35 AM 33.8 °F 25.3 °F 33.8 °F 100% 29.91 in 7.0 mi NW 11.5 mph - N/A   Overcast
4:55 AM 33.8 °F 25.3 °F 33.8 °F 100% 29.90 in 7.0 mi WNW 11.5 mph - N/A   Overcast
5:15 AM 33.8 °F 27.0 °F 33.8 °F 100% 29.90 in 5.0 mi West 8.1 mph - N/A   Overcast
5:35 AM 33.8 °F 26.4 °F 32.0 °F 93% 29.90 in 10.0 mi West 9.2 mph - N/A   Overcast
5:55 AM 33.8 °F 27.7 °F 32.0 °F 93% 29.90 in 3.0 mi West 6.9 mph - N/A Snow Light Snow
6:15 AM 32.0 °F 23.6 °F 32.0 °F 100% 29.91 in 1.0 mi NW 10.4 mph - 0.16 in Snow Light Snow
6:35 AM 32.0 °F 25.6 °F 32.0 °F 100% 29.91 in 1.5 mi NW 6.9 mph - 0.24 in Snow Light Snow
6:55 AM 32.0 °F 24.8 °F 32.0 °F 100% 29.91 in 0.2 mi NW 8.1 mph - 0.35 in Snow Heavy Snow
7:15 AM 32.0 °F 24.8 °F 32.0 °F 100% 29.92 in 2.5 mi WNW 8.1 mph - N/A Rain Light Rain
7:35 AM 32.0 °F 24.2 °F 32.0 °F 100% 29.93 in 1.2 mi NW 9.2 mph - N/A   Overcast
7:55 AM 32.0 °F 24.2 °F 32.0 °F 100% 29.93 in 0.8 mi NW 9.2 mph - 0.02 in Rain Light Rain
8:15 AM 32.0 °F 23.6 °F 32.0 °F 100% 29.94 in 3.0 mi NW 10.4 mph - N/A   Overcast
8:35 AM 33.8 °F 27.0 °F 33.8 °F 100% 29.94 in 3.0 mi NW 8.1 mph - N/A Rain Light Rain
8:55 AM 33.8 °F 26.4 °F 33.8 °F 100% 29.94 in 4.0 mi WNW 9.2 mph - N/A Rain Light Rain
9:15 AM 35.6 °F 28.0 °F 35.6 °F 100% 29.95 in 9.0 mi NW 10.4 mph - N/A   Mostly Cloudy
9:35 AM 37.4 °F 29.8 °F 33.8 °F 87% 29.95 in 9.0 mi NNW 11.5 mph - N/A   Overcast
9:55 AM 37.4 °F 29.3 °F 33.8 °F 87% 29.96 in 10.0 mi West 12.7 mph - N/A   Mostly Cloudy
10:15 AM 39.2 °F 32.0 °F 32.0 °F 75% 29.96 in 9.0 mi West 11.5 mph - N/A   Mostly Cloudy
10:35 AM 41.0 °F 33.9 °F 32.0 °F 70% 29.96 in 10.0 mi NW 12.7 mph 18.4 mph N/A   Scattered Clouds
10:55 AM 41.0 °F 33.1 °F 32.0 °F 70% 29.97 in 8.0 mi West 15.0 mph - N/A   Mostly Cloudy
11:15 AM 41.0 °F 33.9 °F 30.2 °F 65% 29.97 in 10.0 mi NW 12.7 mph 21.9 mph N/A   Mostly Cloudy
11:35 AM 41.0 °F 33.5 °F 32.0 °F 70% 29.97 in 9.0 mi NW 13.8 mph 19.6 mph N/A   Mostly Cloudy
11:55 AM 41.0 °F 33.9 °F 32.0 °F 70% 29.96 in 9.0 mi WNW 12.7 mph 18.4 mph N/A   Mostly Cloudy
12:15 PM 41.0 °F 34.3 °F 28.4 °F 61% 29.96 in 9.0 mi NW 11.5 mph - N/A   Mostly Cloudy
12:35 PM 42.8 °F 35.8 °F 28.4 °F 57% 29.96 in 10.0 mi NW 13.8 mph 19.6 mph N/A   Scattered Clouds
12:55 PM 44.6 °F 37.8 °F 28.4 °F 53% 29.96 in 10.0 mi WNW 15.0 mph 21.9 mph N/A   Scattered Clouds
1:15 PM 44.6 °F 38.4 °F 26.6 °F 49% 29.95 in 9.0 mi NW 12.7 mph 18.4 mph N/A   Mostly Cloudy
1:35 PM 42.8 °F 36.2 °F 26.6 °F 53% 29.94 in 10.0 mi NW 12.7 mph - N/A   Overcast
1:55 PM 44.6 °F 38.1 °F 26.6 °F 49% 29.94 in 10.0 mi West 13.8 mph 19.6 mph N/A   Overcast
2:15 PM 44.6 °F 38.8 °F 24.8 °F 46% 29.93 in 9.0 mi NW 11.5 mph 18.4 mph N/A   Mostly Cloudy
2:35 PM 44.6 °F 37.8 °F 24.8 °F 46% 29.92 in 10.0 mi NW 15.0 mph 20.7 mph N/A   Mostly Cloudy
2:55 PM 44.6 °F 37.8 °F 26.6 °F 49% 29.92 in 10.0 mi NW 15.0 mph 19.6 mph N/A   Mostly Cloudy
3:15 PM 44.6 °F 38.1 °F 26.6 °F 49% 29.91 in 10.0 mi NNW 13.8 mph - N/A   Overcast
3:35 PM 42.8 °F 35.1 °F 28.4 °F 57% 29.90 in 10.0 mi NNW 16.1 mph 20.7 mph N/A   Overcast
3:55 PM 44.6 °F 38.8 °F 28.4 °F 53% 29.90 in 10.0 mi NW 11.5 mph 20.7 mph N/A   Mostly Cloudy
4:15 PM 42.8 °F 34.8 °F 28.4 °F 57% 29.90 in 10.0 mi NW 17.3 mph 21.9 mph N/A   Overcast
4:35 PM 42.8 °F 35.1 °F 28.4 °F 57% 29.89 in 10.0 mi NW 16.1 mph - N/A   Overcast
4:55 PM 42.8 °F 35.1 °F 28.4 °F 57% 29.89 in 10.0 mi NW 16.1 mph 19.6 mph N/A   Overcast
5:15 PM 42.8 °F 35.8 °F 30.2 °F 61% 29.89 in 10.0 mi NW 13.8 mph - N/A   Overcast
5:35 PM 44.6 °F 38.4 °F 32.0 °F 61% 29.88 in 9.0 mi NW 12.7 mph - N/A Rain Light Rain
5:55 PM 41.0 °F 32.2 °F 32.0 °F 70% 29.88 in 9.0 mi NW 18.4 mph - N/A   Overcast
6:15 PM 41.0 °F 32.2 °F 32.0 °F 70% 29.89 in 8.0 mi NW 18.4 mph 24.2 mph N/A Rain Light Rain
6:35 PM 39.2 °F 30.8 °F 32.0 °F 75% 29.89 in 9.0 mi NW 15.0 mph - N/A   Overcast
6:55 PM 39.2 °F 32.5 °F 32.0 °F 75% 29.89 in 9.0 mi NW 10.4 mph - N/A   Mostly Cloudy
7:15 PM 39.2 °F 31.2 °F 32.0 °F 75% 29.88 in 9.0 mi WNW 13.8 mph - N/A   Mostly Cloudy
7:35 PM 37.4 °F 30.3 °F 32.0 °F 81% 29.89 in 2.5 mi WNW 10.4 mph - 0.05 in Rain Rain
7:55 PM 37.4 °F 32.1 °F 33.8 °F 87% 29.88 in 8.0 mi West 6.9 mph - 0.05 in   Overcast
8:15 PM 37.4 °F 31.4 °F 33.8 °F 87% 29.89 in 10.0 mi West 8.1 mph - N/A   Overcast
8:35 PM 37.4 °F 31.4 °F 33.8 °F 87% 29.89 in 10.0 mi West 8.1 mph - N/A   Overcast
8:55 PM 37.4 °F 31.4 °F 33.8 °F 87% 29.89 in 10.0 mi West 8.1 mph - N/A   Overcast
9:15 PM 37.4 °F 32.8 °F 33.8 °F 87% 29.89 in 9.0 mi WNW 5.8 mph - N/A   Overcast
9:35 PM 37.4 °F 32.1 °F 33.8 °F 87% 29.89 in 10.0 mi WNW 6.9 mph - N/A   Overcast
9:55 PM 37.4 °F 32.1 °F 35.6 °F 93% 29.89 in 10.0 mi NW 6.9 mph - N/A   Overcast
10:15 PM 37.4 °F 29.8 °F 35.6 °F 93% 29.89 in 10.0 mi NW 11.5 mph - N/A   Overcast
10:35 PM 37.4 °F 30.3 °F 35.6 °F 93% 29.89 in 10.0 mi NW 10.4 mph - N/A   Overcast
10:55 PM 37.4 °F 30.3 °F 35.6 °F 93% 29.88 in 9.0 mi NW 10.4 mph - N/A   Overcast
11:15 PM 37.4 °F 29.8 °F 35.6 °F 93% 29.88 in 7.0 mi NW 11.5 mph - N/A Rain Light Rain
11:35 PM 37.4 °F 30.8 °F 32.0 °F 81% 29.87 in 10.0 mi NNW 9.2 mph - N/A   Overcast
11:55 PM 37.4 °F 30.8 °F 33.8 °F 87% 29.88 in 5.0 mi NW 9.2 mph - N/A Rain Light Rain